History for IWARWICK28

Hinson's Island, Warwick, WARWICK — Current Conditions
Daily Summary for January 20, 2019
  Current: High: Low: Average:
Temperature: 70.4°F 72.4°F 62.5°F 67.4°F
Dew Point: 61.3°F 63.6°F 54.4°F 59.4°F
Humidity: 73% 75% 70% 74%
Wind Speed: 18.0mph 24.0mph - 11.9mph
Wind Gust: 27.0mph 29.0mph - -
Wind: SSW - - South
Pressure: 29.97in 30.15in 29.97in -
Precipitation: 0.00in      
Solar Radiation: 121 watts/m^2      
UV Index: 0.0      
Statistics for the rest of the month
    High: Low: Average:
Temperature:   76.1°F 56.7°F 66.1°F
Dew Point:   65.0°F 43.8°F 54.5°F
Humidity:   76.0% 42.0% 67.4%
Wind Speed:   39.0mph from the SSW - 10.7mph
Wind Gust:   44.0mph from the SW - -
Wind:   - - SSW
Pressure:   30.33in 29.59in -
Precipitation:   1.93in    
IWARWICK28 Weather Graph
Tabular Data for January 20, 2019
Time Temp. Dew Point Pressure Wind Gust Humidity Rainfall Solar Radiation
00:05 62.5°F 54.5°F 30.15in 2.0mph 75% 0.00in 0.00 watts/m^2
00:10 62.7°F 54.7°F 30.15in 2.0mph 75% 0.00in 0.00 watts/m^2
00:20 63.3°F 55.2°F 30.15in 2.0mph 75% 0.00in 0.00 watts/m^2
00:25 63.4°F 55.3°F 30.15in 2.0mph 75% 0.00in 0.00 watts/m^2
00:30 63.5°F 55.4°F 30.15in 2.0mph 75% 0.00in 0.00 watts/m^2
00:35 63.5°F 55.4°F 30.15in 3.0mph 75% 0.00in 0.00 watts/m^2
00:40 63.6°F 55.5°F 30.15in 2.0mph 75% 0.00in 0.00 watts/m^2
00:45 63.6°F 55.5°F 30.15in 2.0mph 75% 0.00in 0.00 watts/m^2
00:50 63.6°F 55.5°F 30.15in 2.0mph 75% 0.00in 0.00 watts/m^2
00:55 63.6°F 55.5°F 30.14in 2.0mph 75% 0.00in 0.00 watts/m^2
01:00 63.7°F 55.6°F 30.14in 2.0mph 75% 0.00in 0.00 watts/m^2
01:05 63.8°F 55.7°F 30.14in 3.0mph 75% 0.00in 0.00 watts/m^2
01:10 63.9°F 55.8°F 30.14in 2.0mph 75% 0.00in 0.00 watts/m^2
01:15 63.8°F 55.7°F 30.13in 3.0mph 75% 0.00in 0.00 watts/m^2
01:20 63.9°F 55.8°F 30.13in 2.0mph 75% 0.00in 0.00 watts/m^2
01:25 63.9°F 55.8°F 30.13in 2.0mph 75% 0.00in 0.00 watts/m^2
01:30 63.8°F 55.7°F 30.13in 5.0mph 75% 0.00in 0.00 watts/m^2
01:35 63.8°F 55.7°F 30.12in 5.0mph 75% 0.00in 0.00 watts/m^2
01:40 63.8°F 55.7°F 30.13in 3.0mph 75% 0.00in 0.00 watts/m^2
01:45 64.0°F 55.9°F 30.13in 3.0mph 75% 0.00in 0.00 watts/m^2
01:50 64.1°F 56.0°F 30.13in 3.0mph 75% 0.00in 0.00 watts/m^2
01:55 64.1°F 56.0°F 30.13in 3.0mph 75% 0.00in 0.00 watts/m^2
02:00 64.2°F 56.1°F 30.13in 2.0mph 75% 0.00in 0.00 watts/m^2
02:05 64.2°F 56.1°F 30.12in 3.0mph 75% 0.00in 0.00 watts/m^2
02:10 64.2°F 56.1°F 30.12in 4.0mph 75% 0.00in 0.00 watts/m^2
02:15 64.3°F 56.2°F 30.12in 4.0mph 75% 0.00in 0.00 watts/m^2
02:20 64.4°F 56.3°F 30.12in 3.0mph 75% 0.00in 0.00 watts/m^2
02:25 64.4°F 56.3°F 30.12in 3.0mph 75% 0.00in 0.00 watts/m^2
02:30 64.5°F 56.4°F 30.12in 3.0mph 75% 0.00in 0.00 watts/m^2
02:35 64.5°F 56.4°F 30.12in 3.0mph 75% 0.00in 0.00 watts/m^2
02:40 64.5°F 56.4°F 30.12in 2.0mph 75% 0.00in 0.00 watts/m^2
02:45 64.5°F 56.4°F 30.11in 3.0mph 75% 0.00in 0.00 watts/m^2
02:50 64.6°F 56.5°F 30.11in 2.0mph 75% 0.00in 0.00 watts/m^2
02:55 64.5°F 56.4°F 30.11in 3.0mph 75% 0.00in 0.00 watts/m^2
03:00 64.5°F 56.4°F 30.11in 2.0mph 75% 0.00in 0.00 watts/m^2
03:05 64.6°F 56.5°F 30.11in 4.0mph 75% 0.00in 0.00 watts/m^2
03:10 64.8°F 56.7°F 30.11in 3.0mph 75% 0.00in 0.00 watts/m^2
03:15 65.0°F 56.9°F 30.11in 3.0mph 75% 0.00in 0.00 watts/m^2
03:20 65.0°F 56.9°F 30.11in 4.0mph 75% 0.00in 0.00 watts/m^2
03:25 65.0°F 56.9°F 30.11in 4.0mph 75% 0.00in 0.00 watts/m^2
03:30 65.0°F 56.9°F 30.10in 7.0mph 75% 0.00in 0.00 watts/m^2
03:35 65.0°F 56.9°F 30.10in 7.0mph 75% 0.00in 0.00 watts/m^2
03:40 64.9°F 56.8°F 30.10in 3.0mph 75% 0.00in 0.00 watts/m^2
03:45 64.9°F 56.8°F 30.10in 4.0mph 75% 0.00in 0.00 watts/m^2
03:50 64.9°F 56.8°F 30.10in 4.0mph 75% 0.00in 0.00 watts/m^2
03:55 64.9°F 56.8°F 30.09in 5.0mph 75% 0.00in 0.00 watts/m^2
04:00 64.9°F 56.8°F 30.10in 3.0mph 75% 0.00in 0.00 watts/m^2
04:05 65.0°F 56.9°F 30.09in 4.0mph 75% 0.00in 0.00 watts/m^2
04:10 65.0°F 56.9°F 30.09in 3.0mph 75% 0.00in 0.00 watts/m^2
04:15 65.0°F 56.9°F 30.09in 4.0mph 75% 0.00in 0.00 watts/m^2
04:20 65.1°F 57.0°F 30.09in 4.0mph 75% 0.00in 0.00 watts/m^2
04:25 65.2°F 56.7°F 30.09in 4.0mph 74% 0.00in 0.00 watts/m^2
04:30 65.2°F 56.7°F 30.09in 2.0mph 74% 0.00in 0.00 watts/m^2
04:35 65.3°F 56.8°F 30.09in 4.0mph 74% 0.00in 0.00 watts/m^2
04:40 65.5°F 57.0°F 30.09in 3.0mph 74% 0.00in 0.00 watts/m^2
04:45 65.5°F 57.0°F 30.09in 3.0mph 74% 0.00in 0.00 watts/m^2
04:50 65.5°F 57.0°F 30.09in 6.0mph 74% 0.00in 0.00 watts/m^2
04:55 65.5°F 57.0°F 30.09in 6.0mph 74% 0.00in 0.00 watts/m^2
05:00 65.6°F 57.1°F 30.09in 4.0mph 74% 0.00in 0.00 watts/m^2
05:05 65.6°F 56.7°F 30.09in 5.0mph 73% 0.00in 0.00 watts/m^2
05:10 65.7°F 56.8°F 30.09in 4.0mph 73% 0.00in 0.00 watts/m^2
05:15 65.8°F 56.9°F 30.09in 5.0mph 73% 0.00in 0.00 watts/m^2
05:20 66.0°F 56.7°F 30.09in 7.0mph 72% 0.00in 0.00 watts/m^2
05:25 66.1°F 56.8°F 30.08in 7.0mph 72% 0.00in 0.00 watts/m^2
05:30 66.1°F 56.4°F 30.08in 4.0mph 71% 0.00in 0.00 watts/m^2
05:35 66.1°F 56.4°F 30.08in 5.0mph 71% 0.00in 0.00 watts/m^2
05:40 66.2°F 56.1°F 30.08in 4.0mph 70% 0.00in 0.00 watts/m^2
05:45 66.2°F 56.1°F 30.08in 10.0mph 70% 0.00in 0.00 watts/m^2
05:50 65.9°F 56.2°F 30.08in 11.0mph 71% 0.00in 0.00 watts/m^2
05:55 66.0°F 56.7°F 30.08in 11.0mph 72% 0.00in 0.00 watts/m^2
06:00 66.1°F 56.8°F 30.08in 17.0mph 72% 0.00in 0.00 watts/m^2
06:05 66.1°F 56.8°F 30.08in 17.0mph 72% 0.00in 0.00 watts/m^2
06:10 66.4°F 56.7°F 30.08in 11.0mph 71% 0.00in 0.00 watts/m^2
06:15 66.6°F 56.9°F 30.08in 11.0mph 71% 0.00in 0.00 watts/m^2
06:20 66.7°F 57.0°F 30.08in 10.0mph 71% 0.00in 0.00 watts/m^2
06:25 66.8°F 57.1°F 30.08in 16.0mph 71% 0.00in 0.00 watts/m^2
06:30 66.8°F 57.1°F 30.09in 12.0mph 71% 0.00in 0.00 watts/m^2
06:35 66.9°F 57.6°F 30.09in 17.0mph 72% 0.00in 0.00 watts/m^2
06:40 67.0°F 57.7°F 30.09in 13.0mph 72% 0.00in 0.00 watts/m^2
06:45 66.8°F 57.5°F 30.09in 16.0mph 72% 0.00in 0.00 watts/m^2
06:50 66.7°F 57.4°F 30.09in 20.0mph 72% 0.00in 0.00 watts/m^2
06:55 66.7°F 57.8°F 30.09in 20.0mph 73% 0.00in 0.00 watts/m^2
07:00 66.7°F 57.4°F 30.09in 12.0mph 72% 0.00in 0.00 watts/m^2
07:05 66.7°F 57.8°F 30.09in 13.0mph 73% 0.00in 0.00 watts/m^2
07:10 66.8°F 57.5°F 30.09in 19.0mph 72% 0.00in 0.00 watts/m^2
07:15 66.8°F 57.9°F 30.09in 19.0mph 73% 0.00in 5.00 watts/m^2
07:20 66.8°F 57.9°F 30.09in 14.0mph 73% 0.00in 7.00 watts/m^2
07:25 66.9°F 57.6°F 30.09in 15.0mph 72% 0.00in 9.00 watts/m^2
07:30 67.0°F 57.7°F 30.09in 15.0mph 72% 0.00in 14.00 watts/m^2
07:35 67.0°F 57.7°F 30.10in 15.0mph 72% 0.00in 21.00 watts/m^2
07:40 67.1°F 57.8°F 30.10in 14.0mph 72% 0.00in 32.00 watts/m^2
07:45 67.2°F 57.9°F 30.10in 14.0mph 72% 0.00in 40.00 watts/m^2
07:50 67.3°F 58.0°F 30.10in 16.0mph 72% 0.00in 37.00 watts/m^2
07:55 67.4°F 57.7°F 30.10in 16.0mph 71% 0.00in 33.00 watts/m^2
08:00 67.4°F 57.7°F 30.10in 14.0mph 71% 0.00in 47.00 watts/m^2
08:05 67.6°F 57.9°F 30.10in 14.0mph 71% 0.00in 77.00 watts/m^2
08:10 67.8°F 58.1°F 30.10in 14.0mph 71% 0.00in 86.00 watts/m^2
08:15 67.9°F 58.1°F 30.10in 21.0mph 71% 0.00in 46.00 watts/m^2
08:20 67.8°F 58.4°F 30.10in 13.0mph 72% 0.00in 113.00 watts/m^2
08:25 68.1°F 58.3°F 30.10in 13.0mph 71% 0.00in 114.00 watts/m^2
08:30 68.2°F 58.4°F 30.10in 17.0mph 71% 0.00in 162.00 watts/m^2
08:35 68.3°F 58.9°F 30.10in 17.0mph 72% 0.00in 202.00 watts/m^2
08:40 68.6°F 59.2°F 30.10in 14.0mph 72% 0.00in 207.00 watts/m^2
08:45 68.6°F 59.2°F 30.10in 20.0mph 72% 0.00in 74.00 watts/m^2
08:50 68.6°F 59.2°F 30.10in 14.0mph 72% 0.00in 90.00 watts/m^2
08:55 68.8°F 59.4°F 30.10in 20.0mph 72% 0.00in 285.00 watts/m^2
09:00 68.9°F 59.5°F 30.10in 15.0mph 72% 0.00in 118.00 watts/m^2
09:05 69.1°F 59.7°F 30.10in 15.0mph 72% 0.00in 109.00 watts/m^2
09:10 69.3°F 59.9°F 30.10in 14.0mph 72% 0.00in 274.00 watts/m^2
09:15 69.2°F 59.8°F 30.10in 14.0mph 72% 0.00in 132.00 watts/m^2
09:20 69.1°F 59.7°F 30.10in 19.0mph 72% 0.00in 90.00 watts/m^2
09:25 69.3°F 59.9°F 30.10in 19.0mph 72% 0.00in 79.00 watts/m^2
09:30 69.4°F 60.0°F 30.10in 15.0mph 72% 0.00in 357.00 watts/m^2
09:35 69.8°F 60.4°F 30.10in 15.0mph 72% 0.00in 359.00 watts/m^2
09:40 70.0°F 60.9°F 30.10in 16.0mph 73% 0.00in 318.00 watts/m^2
09:45 70.1°F 61.0°F 30.10in 16.0mph 73% 0.00in 190.00 watts/m^2
09:50 69.9°F 60.8°F 30.10in 17.0mph 73% 0.00in 162.00 watts/m^2
09:55 70.2°F 61.1°F 30.10in 19.0mph 73% 0.00in 394.00 watts/m^2
10:00 70.2°F 61.1°F 30.10in 16.0mph 73% 0.00in 132.00 watts/m^2
10:05 70.1°F 61.0°F 30.10in 17.0mph 73% 0.00in 246.00 watts/m^2
10:10 70.0°F 60.9°F 30.10in 16.0mph 73% 0.00in 162.00 watts/m^2
10:15 70.1°F 61.0°F 30.10in 17.0mph 73% 0.00in 313.00 watts/m^2
10:20 70.0°F 60.9°F 30.10in 16.0mph 73% 0.00in 137.00 watts/m^2
10:25 69.7°F 60.7°F 30.10in 16.0mph 73% 0.00in 125.00 watts/m^2
10:30 69.7°F 60.7°F 30.10in 20.0mph 73% 0.00in 258.00 watts/m^2
10:35 70.0°F 60.9°F 30.10in 21.0mph 73% 0.00in 371.00 watts/m^2
10:40 70.6°F 61.5°F 30.10in 19.0mph 73% 0.00in 538.00 watts/m^2
10:45 71.0°F 61.9°F 30.10in 21.0mph 73% 0.00in 601.00 watts/m^2
10:50 71.2°F 62.5°F 30.10in 19.0mph 74% 0.00in 487.00 watts/m^2
10:55 71.2°F 62.5°F 30.09in 19.0mph 74% 0.00in 420.00 watts/m^2
11:00 71.4°F 62.7°F 30.09in 19.0mph 74% 0.00in 605.00 watts/m^2
11:05 71.5°F 62.8°F 30.09in 20.0mph 74% 0.00in 555.00 watts/m^2
11:10 71.5°F 62.8°F 30.09in 17.0mph 74% 0.00in 515.00 watts/m^2
11:15 71.6°F 62.9°F 30.09in 17.0mph 74% 0.00in 550.00 watts/m^2
11:20 71.7°F 63.0°F 30.08in 20.0mph 74% 0.00in 555.00 watts/m^2
11:25 71.6°F 62.9°F 30.08in 22.0mph 74% 0.00in 550.00 watts/m^2
11:30 71.7°F 63.0°F 30.08in 28.0mph 74% 0.00in 557.00 watts/m^2
11:35 71.8°F 63.1°F 30.08in 28.0mph 74% 0.00in 568.00 watts/m^2
11:40 71.9°F 63.2°F 30.07in 23.0mph 74% 0.00in 571.00 watts/m^2
11:45 72.0°F 63.3°F 30.07in 23.0mph 74% 0.00in 596.00 watts/m^2
11:50 72.0°F 63.3°F 30.06in 19.0mph 74% 0.00in 603.00 watts/m^2
11:55 72.1°F 63.4°F 30.06in 19.0mph 74% 0.00in 608.00 watts/m^2
12:00 72.1°F 63.4°F 30.06in 21.0mph 74% 0.00in 563.00 watts/m^2
12:05 72.1°F 63.4°F 30.05in 21.0mph 74% 0.00in 575.00 watts/m^2
12:10 72.2°F 63.4°F 30.05in 20.0mph 74% 0.00in 619.00 watts/m^2
12:15 72.2°F 63.4°F 30.05in 20.0mph 74% 0.00in 635.00 watts/m^2
12:20 72.1°F 63.4°F 30.04in 18.0mph 74% 0.00in 262.00 watts/m^2
12:25 72.0°F 63.3°F 30.04in 20.0mph 74% 0.00in 390.00 watts/m^2
12:30 71.7°F 63.0°F 30.04in 20.0mph 74% 0.00in 274.00 watts/m^2
12:35 71.7°F 63.0°F 30.03in 22.0mph 74% 0.00in 394.00 watts/m^2
12:40 71.9°F 63.2°F 30.03in 19.0mph 74% 0.00in 619.00 watts/m^2
12:45 72.1°F 63.4°F 30.02in 19.0mph 74% 0.00in 657.00 watts/m^2
12:50 72.1°F 63.4°F 30.02in 25.0mph 74% 0.00in 596.00 watts/m^2
12:55 72.2°F 63.4°F 30.01in 25.0mph 74% 0.00in 631.00 watts/m^2
13:00 72.3°F 63.5°F 30.00in 19.0mph 74% 0.00in 591.00 watts/m^2
13:05 72.1°F 63.4°F 30.00in 21.0mph 74% 0.00in 628.00 watts/m^2
13:10 72.3°F 63.5°F 30.00in 19.0mph 74% 0.00in 635.00 watts/m^2
13:15 72.2°F 63.4°F 29.99in 23.0mph 74% 0.00in 642.00 watts/m^2
13:20 72.2°F 63.4°F 30.00in 21.0mph 74% 0.00in 265.00 watts/m^2
13:25 72.0°F 63.3°F 30.00in 21.0mph 74% 0.00in 707.00 watts/m^2
13:30 72.2°F 63.4°F 29.99in 25.0mph 74% 0.00in 638.00 watts/m^2
13:35 72.4°F 63.6°F 29.99in 25.0mph 74% 0.00in 612.00 watts/m^2
13:40 72.3°F 63.5°F 29.98in 19.0mph 74% 0.00in 636.00 watts/m^2
13:45 72.3°F 63.5°F 29.98in 28.0mph 74% 0.00in 527.00 watts/m^2
13:50 72.4°F 63.6°F 29.98in 18.0mph 74% 0.00in 578.00 watts/m^2
13:55 72.3°F 63.5°F 29.97in 18.0mph 74% 0.00in 487.00 watts/m^2
14:00 72.2°F 63.4°F 29.97in 18.0mph 74% 0.00in 457.00 watts/m^2
14:05 72.3°F 63.5°F 29.98in 22.0mph 74% 0.00in 580.00 watts/m^2
14:10 72.3°F 63.5°F 29.97in 18.0mph 74% 0.00in 476.00 watts/m^2
14:15 72.3°F 63.5°F 29.98in 18.0mph 74% 0.00in 469.00 watts/m^2
14:20 72.1°F 63.4°F 29.98in 29.0mph 74% 0.00in 520.00 watts/m^2
14:25 72.0°F 63.3°F 29.97in 29.0mph 74% 0.00in 461.00 watts/m^2
14:30 72.0°F 63.3°F 29.97in 21.0mph 74% 0.00in 490.00 watts/m^2
14:35 71.9°F 63.2°F 29.98in 22.0mph 74% 0.00in 357.00 watts/m^2
14:40 71.7°F 63.0°F 29.97in 22.0mph 74% 0.00in 401.00 watts/m^2
14:45 71.7°F 63.0°F 29.97in 26.0mph 74% 0.00in 227.00 watts/m^2
14:50 71.5°F 62.8°F 29.97in 21.0mph 74% 0.00in 225.00 watts/m^2
14:55 71.3°F 62.6°F 29.97in 29.0mph 74% 0.00in 292.00 watts/m^2
15:00 71.1°F 62.4°F 29.98in 24.0mph 74% 0.00in 244.00 watts/m^2
15:05 71.0°F 62.3°F 29.98in 24.0mph 74% 0.00in 218.00 watts/m^2
15:10 70.9°F 62.2°F 29.98in 22.0mph 74% 0.00in 220.00 watts/m^2
15:15 70.9°F 62.2°F 29.98in 22.0mph 74% 0.00in 325.00 watts/m^2
15:20 71.0°F 62.3°F 29.98in 22.0mph 74% 0.00in 213.00 watts/m^2
15:25 70.8°F 62.1°F 29.98in 29.0mph 74% 0.00in 183.00 watts/m^2
15:30 70.7°F 62.0°F 29.98in 20.0mph 74% 0.00in 171.00 watts/m^2
15:35 70.6°F 61.9°F 29.98in 23.0mph 74% 0.00in 113.00 watts/m^2
15:40 70.6°F 61.9°F 29.98in 21.0mph 74% 0.00in 128.00 watts/m^2
15:45 70.7°F 62.0°F 29.98in 23.0mph 74% 0.00in 248.00 watts/m^2
15:50 70.8°F 62.1°F 29.98in 27.0mph 74% 0.00in 134.00 watts/m^2
15:55 71.0°F 62.3°F 29.98in 27.0mph 74% 0.00in 359.00 watts/m^2
16:00 71.2°F 62.5°F 29.97in 23.0mph 74% 0.00in 153.00 watts/m^2
16:05 71.0°F 62.3°F 29.98in 23.0mph 74% 0.00in 95.00 watts/m^2
16:10 70.7°F 62.0°F 29.98in 19.0mph 74% 0.00in 97.00 watts/m^2
16:15 70.6°F 61.9°F 29.98in 21.0mph 74% 0.00in 121.00 watts/m^2
16:20 70.4°F 61.7°F 29.98in 19.0mph 74% 0.00in 102.00 watts/m^2
16:25 70.4°F 61.7°F 29.98in 21.0mph 74% 0.00in 128.00 watts/m^2
16:30 70.3°F 61.6°F 29.98in 23.0mph 74% 0.00in 109.00 watts/m^2
16:35 70.3°F 61.6°F 29.98in 23.0mph 74% 0.00in 90.00 watts/m^2
16:40 70.2°F 61.5°F 29.97in 21.0mph 74% 0.00in 81.00 watts/m^2
16:45 70.1°F 61.4°F 29.98in 21.0mph 74% 0.00in 67.00 watts/m^2
Comma Delimited File
Powered by Weather Underground, Inc.